Time;durP1;ratioP1;P1;durP2;ratioP2;P2;SDS_P1;SDS_P2;PMS_P1;PMS_P2;Temp;Humidity;BMP_temperature;BMP_pressure;BME280_temperature;BME280_humidity;BME280_pressure;Samples;Min_cycle;Max_cycle;Signal;HPM_P1;HPM_P2
2020/12/19 00:02:22;;;;;;;65.40;36.90;;;180.00;1971.20;;;;;;5076048;28;20081;-67
2020/12/19 00:04:48;;;;;;;59.92;34.53;;;180.10;1971.20;;;;;;5076147;28;20458;-67
2020/12/19 00:07:13;;;;;;;57.67;34.13;;;180.10;1971.20;;;;;;5076024;28;20038;-67
2020/12/19 00:09:39;;;;;;;69.82;39.67;;;180.10;1971.20;;;;;;5076047;28;20021;-67
2020/12/19 00:12:05;;;;;;;70.50;41.75;;;180.10;1971.20;;;;;;5075688;28;20051;-67
2020/12/19 00:14:31;;;;;;;71.97;42.97;;;180.00;1971.20;;;;;;5075628;28;20021;-68
2020/12/19 00:16:57;;;;;;;81.60;43.30;;;180.00;1971.20;;;;;;5075341;28;20504;-67
2020/12/19 00:19:23;;;;;;;74.43;39.40;;;180.10;1971.20;;;;;;5075656;28;20055;-68
2020/12/19 00:21:49;;;;;;;73.50;40.42;;;180.10;1971.20;;;;;;5075783;28;20036;-67
2020/12/19 00:24:14;;;;;;;61.92;36.88;;;180.10;1971.20;;;;;;5075657;28;20042;-67
2020/12/19 00:26:42;;;;;;;63.45;36.63;;;180.10;1971.20;;;;;;5075635;28;20496;-68
2020/12/19 00:29:10;;;;;;;67.05;37.97;;;180.10;1971.20;;;;;;5075530;28;20107;-67
2020/12/19 00:31:36;;;;;;;70.65;38.90;;;180.10;1971.20;;;;;;5075536;28;20024;-68
2020/12/19 00:34:03;;;;;;;68.75;38.78;;;180.10;1971.20;;;;;;5075399;28;20029;-68
2020/12/19 00:36:29;;;;;;;66.40;37.80;;;180.10;1971.20;;;;;;5075302;28;20048;-67
2020/12/19 00:38:55;;;;;;;70.57;37.17;;;180.10;1971.20;;;;;;5075174;28;20470;-67
2020/12/19 00:41:23;;;;;;;62.35;33.67;;;180.10;1971.20;;;;;;5075085;28;20047;-67
2020/12/19 00:43:49;;;;;;;55.05;32.88;;;180.10;1971.20;;;;;;5075436;28;20021;-67
2020/12/19 00:46:17;;;;;;;53.78;30.90;;;180.10;1971.20;;;;;;5107369;28;20090;-67
2020/12/19 00:48:43;;;;;;;54.08;31.15;;;180.00;1971.20;;;;;;5075160;28;20362;-69
2020/12/19 00:51:27;;;;;;;57.65;31.05;;;180.10;1971.20;;;;;;5075196;28;20109;-68
2020/12/19 00:53:53;;;;;;;59.67;31.20;;;180.10;1971.20;;;;;;5075084;28;20029;-68
2020/12/19 00:56:24;;;;;;;52.28;28.17;;;204.80;1971.20;;;;;;5074723;28;20020;-67
2020/12/19 00:58:56;;;;;;;51.67;27.15;;;180.10;1971.20;;;;;;5074806;28;20028;-68
2020/12/19 01:01:24;;;;;;;49.58;29.27;;;180.10;1971.20;;;;;;5074613;28;20021;-67
2020/12/19 01:03:52;;;;;;;45.10;27.30;;;180.10;1971.20;;;;;;5074917;28;20036;-67
2020/12/19 01:06:20;;;;;;;43.50;26.15;;;180.10;1971.20;;;;;;5074432;28;20025;-68
2020/12/19 01:08:47;;;;;;;46.53;26.52;;;180.10;1971.20;;;;;;5074753;28;20034;-67
2020/12/19 01:11:18;;;;;;;47.60;27.33;;;180.10;1971.20;;;;;;5074727;28;20024;-67
2020/12/19 01:13:44;;;;;;;43.00;26.60;;;180.10;1971.20;;;;;;5074716;28;20090;-67
2020/12/19 01:16:21;;;;;;;46.10;26.20;;;180.10;1971.20;;;;;;5074246;28;20031;-68
2020/12/19 01:18:48;;;;;;;46.10;25.65;;;180.00;1971.20;;;;;;5074543;28;20039;-68
2020/12/19 01:21:23;;;;;;;51.40;27.60;;;180.00;1971.20;;;;;;5074584;28;20365;-67
2020/12/19 01:23:50;;;;;;;45.97;26.83;;;180.10;1971.20;;;;;;5074540;28;20059;-67
2020/12/19 01:26:16;;;;;;;49.83;28.25;;;180.00;1971.20;;;;;;5074012;28;20025;-67
2020/12/19 01:28:42;;;;;;;45.60;27.27;;;180.00;1971.20;;;;;;5074484;28;20162;-67
2020/12/19 01:31:10;;;;;;;49.10;27.77;;;180.00;1971.20;;;;;;5074310;28;20036;-67
2020/12/19 01:33:37;;;;;;;53.03;29.50;;;180.00;1971.20;;;;;;5074309;28;20027;-67
2020/12/19 01:36:03;;;;;;;59.00;30.20;;;180.00;1971.20;;;;;;5073937;28;20021;-67
2020/12/19 01:38:29;;;;;;;51.85;29.67;;;180.10;1971.20;;;;;;5074126;28;20033;-67
2020/12/19 01:40:56;;;;;;;57.67;30.50;;;180.10;1971.20;;;;;;5074240;28;20049;-67
2020/12/19 01:43:23;;;;;;;58.00;30.40;;;180.00;1971.20;;;;;;5074219;28;20039;-67
2020/12/19 01:45:50;;;;;;;50.80;27.38;;;180.00;1971.20;;;;;;5074105;28;20025;-67
2020/12/19 01:48:25;;;;;;;52.67;28.35;;;180.00;1971.20;;;;;;5074250;28;20372;-67
2020/12/19 01:50:53;;;;;;;46.70;26.73;;;180.00;1996.80;;;;;;5074146;28;20366;-67
2020/12/19 01:53:20;;;;;;;50.63;26.83;;;180.00;1971.20;;;;;;5074159;28;20090;-67
2020/12/19 01:55:48;;;;;;;43.13;26.10;;;180.00;1996.80;;;;;;5072903;28;20107;-67
2020/12/19 01:58:14;;;;;;;46.50;26.33;;;180.00;1996.80;;;;;;5073884;28;20054;-67
2020/12/19 02:00:40;;;;;;;42.08;26.33;;;180.00;1996.80;;;;;;5073917;28;20070;-68
2020/12/19 02:03:06;;;;;;;44.33;24.65;;;179.90;1971.20;;;;;;5073877;28;20389;-68
2020/12/19 02:05:35;;;;;;;43.90;25.48;;;180.00;1996.80;;;;;;5073310;28;20017;-68
2020/12/19 02:08:01;;;;;;;44.88;26.75;;;180.00;1996.80;;;;;;5073657;28;20491;-68
2020/12/19 02:10:32;;;;;;;47.85;26.15;;;180.00;1996.80;;;;;;5073803;28;20024;-68
2020/12/19 02:13:01;;;;;;;46.85;26.85;;;179.90;1996.80;;;;;;5073674;28;20021;-68
2020/12/19 02:15:38;;;;;;;49.67;28.20;;;180.00;1996.80;;;;;;5073868;28;20021;-68
2020/12/19 02:18:03;;;;;;;46.42;28.02;;;179.90;1996.80;;;;;;5073377;28;20051;-68
2020/12/19 02:20:29;;;;;;;48.10;27.35;;;179.90;1996.80;;;;;;5074319;28;20103;-67
2020/12/19 02:22:56;;;;;;;48.08;28.13;;;180.00;1996.80;;;;;;5073687;28;20418;-67
2020/12/19 02:25:22;;;;;;;51.03;28.33;;;179.90;1996.80;;;;;;5073733;28;20365;-67
2020/12/19 02:27:50;;;;;;;54.38;29.88;;;180.00;1996.80;;;;;;5073762;28;20028;-67
2020/12/19 02:30:16;;;;;;;56.38;30.02;;;180.00;1996.80;;;;;;5073583;28;20033;-67
2020/12/19 02:32:44;;;;;;;47.33;27.13;;;180.00;1996.80;;;;;;5073426;28;20358;-67
2020/12/19 02:35:10;;;;;;;55.50;28.50;;;180.00;1996.80;;;;;;5073869;28;20025;-67
2020/12/19 02:37:36;;;;;;;54.38;27.80;;;179.90;1996.80;;;;;;5073401;28;20124;-67
2020/12/19 02:40:03;;;;;;;52.97;27.02;;;179.90;1996.80;;;;;;5077054;28;20033;-67
2020/12/19 02:42:29;;;;;;;47.22;26.70;;;179.90;1996.80;;;;;;5077425;28;20081;-67
2020/12/19 02:44:54;;;;;;;50.42;26.35;;;180.00;1996.80;;;;;;5077371;28;20095;-67
2020/12/19 02:47:20;;;;;;;48.60;26.83;;;179.90;1996.80;;;;;;5077514;28;20500;-68
2020/12/19 02:49:46;;;;;;;50.08;27.23;;;180.00;1996.80;;;;;;5077444;28;20028;-68
2020/12/19 02:52:11;;;;;;;49.92;27.85;;;180.00;1996.80;;;;;;5077516;28;20024;-67
2020/12/19 02:54:37;;;;;;;48.95;29.60;;;180.00;1996.80;;;;;;5077311;28;20031;-67
2020/12/19 02:57:03;;;;;;;49.25;29.63;;;180.00;1996.80;;;;;;5077064;28;20546;-67
2020/12/19 02:59:28;;;;;;;53.67;29.67;;;179.90;1996.80;;;;;;5077267;28;20020;-68
2020/12/19 03:01:54;;;;;;;54.17;30.42;;;179.90;1996.80;;;;;;5077000;28;20380;-68
2020/12/19 03:04:20;;;;;;;54.10;31.40;;;180.00;2022.40;;;;;;5077009;28;20025;-67
2020/12/19 03:06:45;;;;;;;52.38;30.15;;;180.00;1996.80;;;;;;5077127;28;20025;-68
2020/12/19 03:09:11;;;;;;;50.10;29.60;;;180.00;1996.80;;;;;;5077379;28;20078;-67
2020/12/19 03:11:37;;;;;;;56.10;32.30;;;180.00;1996.80;;;;;;5077073;28;20024;-68
2020/12/19 03:14:02;;;;;;;55.97;31.60;;;180.00;1996.80;;;;;;5077156;28;20040;-68
2020/12/19 03:16:28;;;;;;;57.85;31.83;;;180.00;1996.80;;;;;;5076687;28;20044;-67
2020/12/19 03:18:54;;;;;;;53.75;30.80;;;180.00;1996.80;;;;;;5077107;28;20343;-68
2020/12/19 03:21:19;;;;;;;53.95;29.13;;;179.90;1996.80;;;;;;5076826;28;20029;-67
2020/12/19 03:23:45;;;;;;;53.30;29.00;;;179.90;1996.80;;;;;;5076951;28;20028;-67
2020/12/19 03:26:11;;;;;;;48.60;27.63;;;180.00;1996.80;;;;;;5076763;28;20118;-68
2020/12/19 03:28:37;;;;;;;50.05;29.55;;;180.00;1996.80;;;;;;5076197;28;20473;-67
2020/12/19 03:31:02;;;;;;;50.10;28.45;;;180.00;1996.80;;;;;;5076857;28;20350;-67
2020/12/19 03:33:28;;;;;;;47.90;26.83;;;180.00;1996.80;;;;;;5076545;28;20032;-67
2020/12/19 03:35:54;;;;;;;45.60;25.55;;;179.90;1996.80;;;;;;5076603;28;20032;-67
2020/12/19 03:38:19;;;;;;;48.67;25.67;;;180.00;1996.80;;;;;;5076353;28;20540;-67
2020/12/19 03:40:45;;;;;;;39.72;24.98;;;180.00;1996.80;;;;;;5077120;28;20094;-68
2020/12/19 03:43:11;;;;;;;44.88;25.77;;;180.00;1996.80;;;;;;5076333;28;20449;-68
2020/12/19 03:45:36;;;;;;;39.00;23.48;;;180.00;1996.80;;;;;;5076146;28;20028;-68
2020/12/19 03:48:02;;;;;;;41.60;25.38;;;180.00;1996.80;;;;;;5076380;28;20016;-67
2020/12/19 03:50:28;;;;;;;45.05;26.00;;;180.00;1996.80;;;;;;5075823;28;20032;-68
2020/12/19 03:52:54;;;;;;;43.08;24.15;;;180.00;2022.40;;;;;;5076399;28;20036;-68
2020/12/19 03:55:19;;;;;;;40.63;25.17;;;179.90;2022.40;;;;;;5076413;28;20150;-67
2020/12/19 03:57:45;;;;;;;39.53;23.30;;;180.00;1996.80;;;;;;5075935;28;20036;-68
2020/12/19 04:00:11;;;;;;;36.90;22.10;;;180.00;1996.80;;;;;;5076203;28;20043;-68
2020/12/19 04:02:37;;;;;;;38.47;22.48;;;179.90;1996.80;;;;;;5075997;28;20358;-68
2020/12/19 04:05:07;;;;;;;40.70;22.98;;;179.90;2022.40;;;;;;5074505;28;20020;-68
2020/12/19 04:07:32;;;;;;;40.63;22.45;;;179.90;1996.80;;;;;;5076003;28;20060;-68
2020/12/19 04:09:58;;;;;;;42.90;23.05;;;179.90;2022.40;;;;;;5076028;28;20070;-67
2020/12/19 04:12:24;;;;;;;40.63;23.25;;;179.90;1996.80;;;;;;5076008;28;20039;-67
2020/12/19 04:14:49;;;;;;;41.55;22.20;;;179.90;1996.80;;;;;;5074403;28;20334;-67
2020/12/19 04:17:15;;;;;;;35.75;21.30;;;179.90;2022.40;;;;;;5075545;28;20044;-67
2020/12/19 04:19:41;;;;;;;38.10;21.70;;;180.00;2022.40;;;;;;5075050;28;20047;-68
2020/12/19 04:22:07;;;;;;;44.95;23.85;;;180.00;2022.40;;;;;;5075504;28;20028;-67
2020/12/19 04:24:33;;;;;;;44.80;25.05;;;179.90;2022.40;;;;;;5075823;28;20025;-67
2020/12/19 04:27:00;;;;;;;48.25;23.65;;;179.90;2022.40;;;;;;5075613;28;20024;-67
2020/12/19 04:29:26;;;;;;;43.72;23.60;;;179.90;2022.40;;;;;;5075697;28;20052;-67
2020/12/19 04:31:53;;;;;;;37.03;20.65;;;179.90;2022.40;;;;;;5075604;28;20025;-67
2020/12/19 04:34:19;;;;;;;34.92;20.27;;;179.90;2022.40;;;;;;5075426;28;20036;-68
2020/12/19 04:36:45;;;;;;;32.25;19.95;;;179.90;2022.40;;;;;;5074680;28;22420;-68
2020/12/19 04:39:10;;;;;;;31.63;19.10;;;179.90;2022.40;;;;;;5074792;28;20169;-67
2020/12/19 04:41:36;;;;;;;28.65;18.52;;;179.90;2022.40;;;;;;5075270;28;20025;-67
2020/12/19 04:44:04;;;;;;;33.60;19.92;;;179.90;2022.40;;;;;;5075525;28;20059;-68
2020/12/19 04:46:31;;;;;;;28.75;17.95;;;179.90;2022.40;;;;;;5075164;28;20051;-68
2020/12/19 04:48:59;;;;;;;32.25;18.63;;;179.90;2022.40;;;;;;5074913;28;20024;-68
2020/12/19 04:51:28;;;;;;;31.15;19.10;;;179.80;2022.40;;;;;;5075054;28;20070;-68
2020/12/19 04:53:57;;;;;;;32.85;20.05;;;179.80;2022.40;;;;;;5074839;28;20035;-68
2020/12/19 04:56:24;;;;;;;39.17;20.60;;;179.80;2022.40;;;;;;5074984;28;20485;-68
2020/12/19 04:59:00;;;;;;;33.13;19.35;;;179.80;2022.40;;;;;;5073425;28;20497;-67
2020/12/19 05:01:26;;;;;;;38.22;22.67;;;179.80;2022.40;;;;;;5073879;28;20028;-68
2020/12/19 05:03:53;;;;;;;43.47;24.42;;;179.80;2022.40;;;;;;5074878;28;20031;-68
2020/12/19 05:06:24;;;;;;;43.78;25.40;;;179.80;2022.40;;;;;;5074916;28;20024;-67
2020/12/19 05:08:50;;;;;;;44.53;24.63;;;179.80;2022.40;;;;;;5074660;28;20021;-68
2020/12/19 05:11:17;;;;;;;39.30;22.75;;;179.80;2022.40;;;;;;5074604;28;20910;-68
2020/12/19 05:13:44;;;;;;;38.72;23.85;;;179.90;2022.40;;;;;;5074916;28;20035;-68
2020/12/19 05:16:11;;;;;;;57.05;29.17;;;179.80;2022.40;;;;;;5074385;28;20403;-67
2020/12/19 05:18:38;;;;;;;62.78;32.80;;;179.80;2048.00;;;;;;5072890;28;20048;-68
2020/12/19 05:21:08;;;;;;;53.53;28.83;;;179.90;2022.40;;;;;;5074653;28;20032;-68
2020/12/19 05:23:35;;;;;;;58.85;29.80;;;179.80;2022.40;;;;;;5074490;28;20508;-67
2020/12/19 05:26:05;;;;;;;54.67;27.55;;;179.90;2022.40;;;;;;5074313;28;20036;-67
2020/12/19 05:28:33;;;;;;;48.05;27.33;;;179.90;2022.40;;;;;;5073780;28;20039;-67
2020/12/19 05:31:00;;;;;;;43.35;25.80;;;179.90;2048.00;;;;;;5072966;28;20063;-67
2020/12/19 05:33:42;;;;;;;51.67;28.90;;;179.80;2048.00;;;;;;5074300;28;20346;-67
2020/12/19 05:36:21;;;;;;;51.40;28.85;;;179.80;2048.00;;;;;;5074126;28;20047;-67
2020/12/19 05:38:47;;;;;;;45.40;25.83;;;179.80;2048.00;;;;;;5074325;28;20385;-67
2020/12/19 05:41:14;;;;;;;41.28;25.00;;;179.80;2022.40;;;;;;5074331;28;20100;-67
2020/12/19 05:43:52;;;;;;;42.45;23.83;;;179.80;2048.00;;;;;;5074222;28;20020;-67
2020/12/19 05:46:29;;;;;;;38.08;21.88;;;179.90;2048.00;;;;;;5073952;28;20472;-67
2020/12/19 05:48:56;;;;;;;37.55;23.23;;;179.80;2048.00;;;;;;5074484;28;20063;-67
2020/12/19 05:51:24;;;;;;;40.00;23.48;;;179.90;2022.40;;;;;;5073997;28;20146;-67
2020/12/19 05:53:52;;;;;;;39.30;23.02;;;179.90;2022.40;;;;;;5074301;28;20027;-67
2020/12/19 05:56:22;;;;;;;37.47;22.77;;;179.80;2048.00;;;;;;5072697;28;20059;-67
2020/12/19 05:58:51;;;;;;;41.15;24.48;;;179.80;2048.00;;;;;;5073677;28;20039;-67
2020/12/19 06:01:19;;;;;;;47.38;25.88;;;179.90;2048.00;;;;;;5073804;28;20044;-67
2020/12/19 06:03:49;;;;;;;48.05;24.60;;;179.90;2048.00;;;;;;5072830;28;20028;-67
2020/12/19 06:06:16;;;;;;;45.83;26.02;;;179.90;2048.00;;;;;;5074084;28;20384;-67
2020/12/19 06:08:42;;;;;;;42.15;24.90;;;179.90;2022.40;;;;;;5073719;28;20028;-67
2020/12/19 06:11:15;;;;;;;45.42;24.90;;;180.00;2022.40;;;;;;5073815;28;20032;-67
2020/12/19 06:13:45;;;;;;;47.65;24.85;;;180.00;2048.00;;;;;;5073725;28;20103;-67
2020/12/19 06:16:12;;;;;;;47.75;25.52;;;179.90;2022.40;;;;;;5073321;28;20100;-68
2020/12/19 06:18:47;;;;;;;51.65;28.75;;;180.00;2022.40;;;;;;5073529;28;20473;-67
2020/12/19 06:21:13;;;;;;;;;;;179.90;2048.00;;;;;;5074222;28;20051;-67
2020/12/19 06:23:41;;;;;;;69.47;35.83;;;179.90;2022.40;;;;;;5073899;28;19931;-67
2020/12/19 06:26:08;;;;;;;82.20;38.85;;;179.90;2048.00;;;;;;5073743;28;20035;-67
2020/12/19 06:28:43;;;;;;;97.88;41.10;;;179.90;2022.40;;;;;;5073797;28;20470;-67
2020/12/19 06:31:17;;;;;;;75.05;36.45;;;179.90;2022.40;;;;;;5073462;28;20420;-67
2020/12/19 06:33:46;;;;;;;68.82;35.05;;;180.00;2022.40;;;;;;5073461;28;20063;-67
2020/12/19 06:36:23;;;;;;;66.43;33.60;;;180.00;2022.40;;;;;;5073763;28;20515;-67
2020/12/19 06:39:05;;;;;;;71.47;34.53;;;180.00;2022.40;;;;;;5073523;28;20039;-67
2020/12/19 06:41:41;;;;;;;60.85;31.27;;;180.00;2022.40;;;;;;5073469;28;20028;-67
2020/12/19 06:44:09;;;;;;;56.05;30.13;;;180.10;2048.00;;;;;;5073143;28;20078;-68
2020/12/19 06:46:35;;;;;;;61.63;32.78;;;180.10;2022.40;;;;;;5073297;28;20035;-67
2020/12/19 06:49:24;;;;;;;92.00;45.53;;;180.10;2022.40;;;;;;5073511;28;20028;-67
2020/12/19 06:52:04;;;;;;;99.68;48.17;;;180.10;2022.40;;;;;;5073355;28;20016;-67
2020/12/19 06:54:35;;;;;;;87.85;43.63;;;180.10;2048.00;;;;;;5073603;28;20021;-68
2020/12/19 06:57:02;;;;;;;73.65;39.00;;;180.10;2048.00;;;;;;5073469;28;20055;-68
2020/12/19 06:59:29;;;;;;;76.57;40.22;;;180.10;2022.40;;;;;;5073376;28;20112;-68
2020/12/19 07:02:14;;;;;;;66.50;37.22;;;180.10;2022.40;;;;;;5073306;28;20024;-68
2020/12/19 07:04:40;;;;;;;65.20;34.70;;;204.80;2022.40;;;;;;5073939;28;20033;-68
2020/12/19 07:07:09;;;;;;;56.97;30.70;;;204.80;2022.40;;;;;;5073276;28;20086;-68
2020/12/19 07:09:35;;;;;;;56.83;33.10;;;180.10;2022.40;;;;;;5073355;28;20044;-68
2020/12/19 07:12:01;;;;;;;73.97;40.47;;;180.10;2022.40;;;;;;5073215;28;20025;-68
2020/12/19 07:14:42;;;;;;;72.03;38.47;;;180.10;2022.40;;;;;;5072020;28;20048;-68
2020/12/19 07:17:20;;;;;;;78.93;43.28;;;180.10;2022.40;;;;;;5072544;28;20460;-68
2020/12/19 07:19:47;;;;;;;83.03;42.08;;;180.10;2022.40;;;;;;5073322;28;20040;-68
2020/12/19 07:22:13;;;;;;;78.60;43.65;;;180.10;2022.40;;;;;;5072994;28;20120;-68
2020/12/19 07:24:39;;;;;;;77.25;41.75;;;204.80;2022.40;;;;;;5074084;28;20111;-68
2020/12/19 07:27:05;;;;;;;74.90;43.17;;;180.10;1996.80;;;;;;5076628;28;20053;-68
2020/12/19 07:29:30;;;;;;;77.13;44.30;;;180.10;2022.40;;;;;;5076796;28;20040;-68
2020/12/19 07:31:59;;;;;;;79.85;47.72;;;180.10;2022.40;;;;;;5076466;28;20407;-68
2020/12/19 07:34:25;;;;;;;83.32;50.20;;;204.80;1996.80;;;;;;5076732;28;20066;-68
2020/12/19 07:36:52;;;;;;;115.68;57.58;;;204.80;1996.80;;;;;;5076350;28;20498;-68
2020/12/19 07:39:20;;;;;;;144.15;70.40;;;204.80;1996.80;;;;;;5076724;28;20043;-68
2020/12/19 07:42:05;;;;;;;130.77;66.80;;;204.80;1996.80;;;;;;5076540;28;20029;-68
2020/12/19 07:44:31;;;;;;;103.40;56.58;;;204.90;1996.80;;;;;;5076489;28;20051;-68
2020/12/19 07:47:11;;;;;;;100.95;56.17;;;204.90;1996.80;;;;;;5076534;28;20033;-68
2020/12/19 07:49:38;;;;;;;116.10;64.63;;;204.80;1996.80;;;;;;5076470;28;20045;-68
2020/12/19 07:52:28;;;;;;;113.70;60.92;;;204.80;1996.80;;;;;;5076274;28;20067;-67
2020/12/19 07:55:01;;;;;;;101.80;55.55;;;204.80;1996.80;;;;;;5034084;28;20117;-68
2020/12/19 07:57:31;;;;;;;139.52;72.63;;;204.90;1996.80;;;;;;5033856;28;20054;-68
2020/12/19 08:00:03;;;;;;;130.90;70.82;;;204.90;1996.80;;;;;;5034002;28;20056;-68
2020/12/19 08:02:29;;;;;;;144.90;76.10;;;204.90;1996.80;;;;;;5033711;28;20025;-68
2020/12/19 08:04:59;;;;;;;121.10;65.90;;;204.90;1996.80;;;;;;5033843;28;20108;-68
2020/12/19 08:07:29;;;;;;;95.90;54.05;;;204.90;1996.80;;;;;;5033981;28;20113;-68
2020/12/19 08:10:11;;;;;;;82.18;48.13;;;204.90;1996.80;;;;;;5034099;28;20026;-67
2020/12/19 08:12:42;;;;;;;88.95;49.80;;;205.00;1996.80;;;;;;5033744;28;20064;-68
2020/12/19 08:15:10;;;;;;;87.72;50.17;;;204.90;1996.80;;;;;;5033798;28;20029;-68
2020/12/19 08:17:49;;;;;;;93.60;55.10;;;204.90;1996.80;;;;;;5033549;28;20478;-68
2020/12/19 08:20:20;;;;;;;86.70;50.28;;;204.90;1996.80;;;;;;5033726;28;20384;-68
2020/12/19 08:22:47;;;;;;;86.00;51.38;;;204.90;1996.80;;;;;;5033658;28;20067;-68
2020/12/19 08:25:13;;;;;;;79.43;46.95;;;204.90;1996.80;;;;;;5032962;28;20030;-68
2020/12/19 08:27:44;;;;;;;76.60;44.33;;;204.90;1996.80;;;;;;5029188;28;20032;-66
2020/12/19 08:30:20;;;;;;;83.70;47.58;;;204.90;2022.40;;;;;;5032234;28;20022;-66
2020/12/19 08:33:06;;;;;;;92.80;49.38;;;204.90;1996.80;;;;;;5068596;28;20587;-67
2020/12/19 08:35:41;;;;;;;88.07;45.45;;;205.00;1996.80;;;;;;5074222;28;20053;-68
2020/12/19 08:38:09;;;;;;;108.68;52.85;;;204.90;1996.80;;;;;;5074512;28;20401;-67
2020/12/19 08:40:45;;;;;;;89.30;45.50;;;204.90;1996.80;;;;;;5074333;28;20021;-68
2020/12/19 08:43:13;;;;;;;74.90;39.25;;;204.90;1996.80;;;;;;5074037;28;20024;-69
2020/12/19 08:45:41;;;;;;;69.18;38.40;;;204.80;2022.40;;;;;;5074223;28;20027;-68
2020/12/19 08:48:21;;;;;;;64.28;36.88;;;204.90;1996.80;;;;;;5073942;28;20025;-66
2020/12/19 08:50:49;;;;;;;63.42;36.38;;;204.80;2022.40;;;;;;5073829;28;20029;-67
2020/12/19 08:53:27;;;;;;;61.85;36.50;;;204.90;2022.40;;;;;;5074120;28;20020;-68
2020/12/19 08:55:54;;;;;;;66.72;38.72;;;204.90;1996.80;;;;;;5073682;28;20024;-66
2020/12/19 08:58:23;;;;;;;67.05;37.47;;;205.00;1996.80;;;;;;5073819;28;20359;-67
2020/12/19 09:00:49;;;;;;;67.88;37.28;;;205.00;1996.80;;;;;;5074010;28;20051;-68
2020/12/19 09:03:15;;;;;;;66.80;36.95;;;205.00;1996.80;;;;;;5074197;28;20033;-67
2020/12/19 09:05:42;;;;;;;68.68;35.90;;;205.00;2022.40;;;;;;5073738;28;20377;-65
2020/12/19 09:08:10;;;;;;;67.90;37.67;;;205.00;1996.80;;;;;;5073919;28;20025;-68
2020/12/19 09:10:37;;;;;;;75.95;39.10;;;205.00;1996.80;;;;;;5073677;28;20100;-68
2020/12/19 09:13:07;;;;;;;63.28;36.42;;;205.00;1996.80;;;;;;5073160;28;20029;-68
2020/12/19 09:15:33;;;;;;;59.40;34.30;;;205.10;1996.80;;;;;;5073801;28;20025;-66
2020/12/19 09:18:10;;;;;;;64.45;37.25;;;205.10;1996.80;;;;;;5073469;28;20049;-67
2020/12/19 09:20:36;;;;;;;63.05;36.55;;;205.10;1996.80;;;;;;5073354;28;20028;-68
2020/12/19 09:23:05;;;;;;;64.60;37.75;;;205.10;1996.80;;;;;;5073653;28;20408;-67
2020/12/19 09:25:32;;;;;;;64.93;38.25;;;205.10;1971.20;;;;;;5073639;28;20115;-68
2020/12/19 09:27:58;;;;;;;59.42;34.63;;;205.10;1971.20;;;;;;5073410;28;20381;-68
2020/12/19 09:30:24;;;;;;;65.93;36.63;;;205.10;1996.80;;;;;;5073439;28;20032;-68
2020/12/19 09:32:50;;;;;;;62.15;35.83;;;205.10;1971.20;;;;;;5072897;28;20027;-67
2020/12/19 09:35:15;;;;;;;63.75;37.72;;;205.20;1971.20;;;;;;5072077;28;20526;-68
2020/12/19 09:37:41;;;;;;;59.97;33.90;;;205.20;1971.20;;;;;;5072681;28;20434;-67
2020/12/19 09:40:07;;;;;;;56.75;32.15;;;205.30;1971.20;;;;;;5073139;28;20024;-67
2020/12/19 09:42:32;;;;;;;54.05;30.08;;;205.30;1971.20;;;;;;5072529;28;20028;-67
2020/12/19 09:44:58;;;;;;;55.33;29.50;;;205.30;1971.20;;;;;;5072306;28;20029;-67
2020/12/19 09:47:24;;;;;;;54.28;30.33;;;205.30;1971.20;;;;;;5072326;28;20389;-67
2020/12/19 09:49:49;;;;;;;60.50;31.75;;;205.20;1971.20;;;;;;5072845;28;20537;-67
2020/12/19 09:52:15;;;;;;;57.30;31.05;;;205.30;1971.20;;;;;;5073044;28;20029;-66
2020/12/19 09:54:40;;;;;;;69.70;33.17;;;205.30;1971.20;;;;;;5073003;28;20054;-68
2020/12/19 09:57:06;;;;;;;64.78;32.03;;;205.30;1971.20;;;;;;5073520;28;20465;-66
2020/12/19 09:59:32;;;;;;;67.00;32.75;;;205.30;1971.20;;;;;;5073941;28;20078;-67
2020/12/19 10:01:57;;;;;;;62.40;36.47;;;205.30;1971.20;;;;;;5073944;28;20438;-70
2020/12/19 10:04:23;;;;;;;65.35;36.90;;;205.30;1971.20;;;;;;5073799;28;20058;-69
2020/12/19 10:06:52;;;;;;;63.25;34.22;;;205.30;1971.20;;;;;;5073911;28;20028;-66
2020/12/19 10:09:18;;;;;;;58.38;33.17;;;205.30;1971.20;;;;;;5073825;28;20035;-67
2020/12/19 10:11:44;;;;;;;63.97;33.50;;;205.40;1971.20;;;;;;5073940;28;21115;-67
2020/12/19 10:14:10;;;;;;;61.35;35.72;;;205.40;1945.60;;;;;;5073634;28;20028;-69
2020/12/19 10:16:36;;;;;;;69.38;37.10;;;205.40;1945.60;;;;;;5073610;28;20047;-66
2020/12/19 10:19:02;;;;;;;60.40;33.28;;;205.40;1945.60;;;;;;5073659;28;20086;-65
2020/12/19 10:21:27;;;;;;;63.47;34.05;;;205.40;1945.60;;;;;;5073428;28;20085;-65
2020/12/19 10:23:53;;;;;;;62.40;33.83;;;205.40;1945.60;;;;;;5073693;28;20035;-65
2020/12/19 10:26:20;;;;;;;64.95;35.13;;;205.30;1971.20;;;;;;5072029;28;20032;-64
2020/12/19 10:28:46;;;;;;;66.75;36.63;;;205.40;1945.60;;;;;;5072027;28;20470;-67
2020/12/19 10:31:11;;;;;;;65.22;35.20;;;205.40;1945.60;;;;;;5071975;28;20043;-64
2020/12/19 10:33:37;;;;;;;62.45;33.70;;;205.40;1971.20;;;;;;5072074;28;20021;-65
2020/12/19 10:36:03;;;;;;;65.10;35.20;;;205.50;1945.60;;;;;;5072013;28;20078;-65
2020/12/19 10:38:28;;;;;;;67.20;38.53;;;205.50;1945.60;;;;;;5071977;28;20040;-64
2020/12/19 10:40:54;;;;;;;61.05;34.70;;;205.50;1945.60;;;;;;5071901;28;20031;-64
2020/12/19 10:43:20;;;;;;;62.22;34.85;;;205.50;1945.60;;;;;;5072023;28;20036;-64
2020/12/19 10:45:46;;;;;;;64.50;35.80;;;205.50;1945.60;;;;;;5072036;28;20078;-66
2020/12/19 10:48:12;;;;;;;73.78;39.97;;;205.50;1945.60;;;;;;5072169;28;20042;-64
2020/12/19 10:50:37;;;;;;;66.72;37.67;;;205.40;1945.60;;;;;;5072081;28;20032;-66
2020/12/19 10:53:03;;;;;;;93.50;49.00;;;205.50;1945.60;;;;;;5070720;28;20052;-64
2020/12/19 10:55:29;;;;;;;84.72;48.97;;;205.50;1945.60;;;;;;5072061;28;20091;-64
2020/12/19 10:57:54;;;;;;;80.47;46.42;;;205.50;1945.60;;;;;;5072802;28;20389;-68
2020/12/19 11:00:20;;;;;;;65.28;39.08;;;205.50;1945.60;;;;;;5075578;28;20077;-66
2020/12/19 11:02:46;;;;;;;67.68;37.00;;;205.50;1945.60;;;;;;5076478;28;20388;-66
2020/12/19 11:05:11;;;;;;;59.03;34.40;;;205.50;1945.60;;;;;;5076965;28;20031;-69
2020/12/19 11:07:37;;;;;;;57.30;30.67;;;205.50;1945.60;;;;;;5076531;28;20032;-66
2020/12/19 11:10:03;;;;;;;50.85;30.10;;;205.40;1945.60;;;;;;5075784;28;20032;-67
2020/12/19 11:12:29;;;;;;;52.50;30.38;;;205.40;1945.60;;;;;;5075622;28;20032;-65
2020/12/19 11:14:55;;;;;;;47.08;28.30;;;205.40;1945.60;;;;;;5076156;28;20069;-66
2020/12/19 11:17:21;;;;;;;46.13;28.95;;;205.30;1945.60;;;;;;5076279;28;20056;-65
2020/12/19 11:19:46;;;;;;;53.95;28.60;;;205.30;1945.60;;;;;;5076276;28;20020;-65
2020/12/19 11:22:12;;;;;;;59.35;30.00;;;205.30;1971.20;;;;;;5075406;28;20024;-66
2020/12/19 11:24:38;;;;;;;51.25;28.98;;;205.40;1945.60;;;;;;5076648;28;20373;-65
2020/12/19 11:27:03;;;;;;;50.95;30.65;;;205.40;1945.60;;;;;;5076442;28;20237;-65
2020/12/19 11:29:29;;;;;;;54.15;31.13;;;205.30;1945.60;;;;;;5076924;28;20088;-66
2020/12/19 11:31:55;;;;;;;52.17;31.25;;;205.30;1920.00;;;;;;5075878;28;20078;-66
2020/12/19 11:34:21;;;;;;;56.75;34.45;;;205.30;1945.60;;;;;;5076124;28;20533;-65
2020/12/19 11:36:47;;;;;;;60.05;35.63;;;205.30;1945.60;;;;;;5076495;28;20036;-67
2020/12/19 11:39:14;;;;;;;58.25;36.00;;;205.30;1920.00;;;;;;5075690;28;20032;-65
2020/12/19 11:41:41;;;;;;;55.92;34.20;;;205.30;1945.60;;;;;;5075959;28;20063;-65
2020/12/19 11:44:07;;;;;;;55.70;33.92;;;205.30;1945.60;;;;;;5075811;28;20051;-65
2020/12/19 11:46:34;;;;;;;57.38;34.70;;;205.30;1920.00;;;;;;5076088;28;20052;-67
2020/12/19 11:48:59;;;;;;;54.75;32.78;;;205.40;1920.00;;;;;;5075632;28;20021;-66
2020/12/19 11:51:34;;;;;;;56.70;33.67;;;205.40;1920.00;;;;;;5075961;28;20488;-65
2020/12/19 11:54:02;;;;;;;54.70;32.35;;;205.40;1920.00;;;;;;5075832;28;20024;-66
2020/12/19 11:56:29;;;;;;;59.03;35.10;;;205.40;1894.40;;;;;;5076204;28;20028;-66
2020/12/19 11:58:54;;;;;;;82.82;43.70;;;205.40;1894.40;;;;;;5076005;28;20032;-66
2020/12/19 12:01:25;;;;;;;73.85;41.40;;;205.40;1894.40;;;;;;5076212;28;20024;-65
2020/12/19 12:03:50;;;;;;;75.13;42.20;;;205.40;1920.00;;;;;;5076089;28;20073;-65